Time;durP1;ratioP1;P1;durP2;ratioP2;P2;SDS_P1;SDS_P2;PMS_P1;PMS_P2;Temp;Humidity;BMP_temperature;BMP_pressure;BME280_temperature;BME280_humidity;BME280_pressure;Samples;Min_cycle;Max_cycle;Signal;HPM_P1;HPM_P2
2023/04/17 00:01:25;;;;;;;4.33;3.70;;;;;;;9.08;100.00;99402.00;5099069;28;20188;-80
2023/04/17 00:03:52;;;;;;;3.93;3.63;;;;;;;9.15;100.00;99389.38;5109208;28;20203;-80
2023/04/17 00:06:19;;;;;;;4.10;3.80;;;;;;;9.06;100.00;99388.84;5110149;28;20241;-80
2023/04/17 00:08:45;;;;;;;3.70;3.40;;;;;;;9.09;100.00;99384.94;5107148;28;20181;-82
2023/04/17 00:11:12;;;;;;;4.00;3.70;;;;;;;9.12;100.00;99390.66;5102159;28;20195;-81
2023/04/17 00:13:39;;;;;;;4.00;3.70;;;;;;;9.08;100.00;99384.09;5090277;28;20204;-82
2023/04/17 00:16:12;;;;;;;3.80;3.50;;;;;;;9.06;100.00;99393.34;5114453;28;20181;-80
2023/04/17 00:18:39;;;;;;;4.10;3.80;;;;;;;9.14;100.00;99385.09;5108587;28;20215;-80
2023/04/17 00:21:06;;;;;;;4.07;3.77;;;;;;;9.20;100.00;99378.88;5109097;28;20187;-81
2023/04/17 00:23:32;;;;;;;4.37;3.97;;;;;;;9.17;100.00;99372.13;5106151;28;20204;-78
2023/04/17 00:25:59;;;;;;;3.70;3.40;;;;;;;9.23;100.00;99373.13;5103343;28;20701;-82
2023/04/17 00:28:26;;;;;;;3.73;3.43;;;;;;;9.15;100.00;99370.69;5098381;28;20217;-79
2023/04/17 00:30:53;;;;;;;4.00;3.70;;;;;;;9.08;100.00;99369.91;5096711;28;20184;-79
2023/04/17 00:33:19;;;;;;;4.10;3.70;;;;;;;9.13;100.00;99375.44;5089529;28;20212;-80
2023/04/17 00:35:46;;;;;;;4.10;3.80;;;;;;;9.11;100.00;99372.16;5106283;28;20592;-80
2023/04/17 00:38:13;;;;;;;4.20;3.80;;;;;;;9.14;100.00;99371.75;5105967;28;20204;-80
2023/04/17 00:40:41;;;;;;;4.43;4.03;;;;;;;9.19;100.00;99367.34;5104529;28;20273;-81
2023/04/17 00:43:08;;;;;;;4.50;4.10;;;;;;;9.09;100.00;99364.38;5102430;28;20196;-79
2023/04/17 00:45:35;;;;;;;4.33;4.03;;;;;;;9.18;100.00;99367.59;5095523;28;20287;-79
2023/04/17 00:48:03;;;;;;;4.00;3.70;;;;;;;9.16;100.00;99364.31;5095906;28;20200;-79
2023/04/17 00:50:30;;;;;;;4.30;4.00;;;;;;;9.15;100.00;99362.66;5092418;28;20180;-79
2023/04/17 00:52:57;;;;;;;3.97;3.67;;;;;;;9.10;100.00;99355.28;5077875;28;20291;-80
2023/04/17 00:55:25;;;;;;;4.23;3.93;;;;;;;9.14;100.00;99361.88;5079676;28;20194;-79
2023/04/17 00:57:52;;;;;;;3.87;3.57;;;;;;;9.07;100.00;99361.09;5099771;28;20211;-79
2023/04/17 01:00:18;;;;;;;4.13;3.80;;;;;;;9.10;100.00;99357.97;5068473;28;20219;-80
2023/04/17 01:02:45;;;;;;;4.80;4.40;;;;;;;9.20;100.00;99358.31;5092791;28;20228;-79
2023/04/17 01:05:12;;;;;;;4.33;4.03;;;;;;;9.20;100.00;99360.97;5099566;28;20230;-82
2023/04/17 01:07:40;;;;;;;3.77;3.47;;;;;;;9.09;100.00;99360.88;5078468;28;20269;-81
2023/04/17 01:10:08;;;;;;;4.30;4.00;;;;;;;9.17;100.00;99368.63;5077749;28;20263;-79
2023/04/17 01:12:35;;;;;;;4.63;4.23;;;;;;;9.20;100.00;99363.66;5095182;28;20694;-79
2023/04/17 01:15:02;;;;;;;4.70;4.23;;;;;;;9.16;100.00;99362.47;5093361;28;20199;-79
2023/04/17 01:17:30;;;;;;;4.70;4.30;;;;;;;9.17;100.00;99352.59;5076757;28;20261;-79
2023/04/17 01:19:57;;;;;;;4.37;4.07;;;;;;;9.27;100.00;99364.44;5092698;28;20204;-79
2023/04/17 01:22:23;;;;;;;4.77;4.37;;;;;;;9.21;100.00;99365.28;5105526;28;20223;-81
2023/04/17 01:24:54;;;;;;;5.07;4.67;;;;;;;9.31;100.00;99364.00;5078344;28;20201;-82
2023/04/17 01:27:23;;;;;;;4.80;4.40;;;;;;;9.39;100.00;99361.88;5093298;28;20200;-81
2023/04/17 01:29:50;;;;;;;5.40;4.90;;;;;;;9.30;100.00;99363.16;5110558;28;20176;-80
2023/04/17 01:32:18;;;;;;;4.80;4.40;;;;;;;9.26;100.00;99359.31;5112362;28;20192;-83
2023/04/17 01:34:45;;;;;;;4.97;4.57;;;;;;;9.34;100.00;99361.69;5096440;28;20199;-81
2023/04/17 01:37:12;;;;;;;4.43;4.13;;;;;;;9.41;100.00;99367.81;5102044;28;20279;-80
2023/04/17 01:39:39;;;;;;;4.60;4.20;;;;;;;9.45;100.00;99373.53;5097251;28;20298;-81
2023/04/17 01:42:06;;;;;;;5.17;4.63;;;;;;;9.38;100.00;99362.88;5097506;28;20203;-80
2023/04/17 01:44:33;;;;;;;4.93;4.53;;;;;;;9.34;100.00;99364.38;5102522;28;20196;-80
2023/04/17 01:47:00;;;;;;;4.60;4.30;;;;;;;9.39;100.00;99366.38;5101997;28;20228;-79
2023/04/17 01:49:27;;;;;;;4.83;4.43;;;;;;;9.32;100.00;99361.13;5105383;28;20228;-81
2023/04/17 01:51:53;;;;;;;4.73;4.33;;;;;;;9.48;100.00;99362.41;5085823;28;20704;-80
2023/04/17 01:54:21;;;;;;;4.90;4.40;;;;;;;9.46;100.00;99365.31;5102645;28;20184;-80
2023/04/17 01:56:47;;;;;;;5.17;4.67;;;;;;;9.46;100.00;99359.16;5084399;28;20576;-81
2023/04/17 01:59:14;;;;;;;5.03;4.63;;;;;;;9.44;100.00;99367.38;5100218;28;20204;-81
2023/04/17 02:01:41;;;;;;;5.00;4.57;;;;;;;9.40;100.00;99366.19;5106670;28;20237;-80
2023/04/17 02:04:08;;;;;;;5.20;4.70;;;;;;;9.41;100.00;99362.47;5101009;28;20192;-79
2023/04/17 02:06:35;;;;;;;5.53;4.87;;;;;;;9.38;100.00;99370.13;5092111;28;20283;-79
2023/04/17 02:09:02;;;;;;;5.30;4.90;;;;;;;9.28;100.00;99371.41;5088532;28;20695;-79
2023/04/17 02:11:29;;;;;;;5.13;4.63;;;;;;;9.37;100.00;99369.31;5091840;28;20270;-81
2023/04/17 02:13:56;;;;;;;5.13;4.63;;;;;;;9.23;100.00;99373.94;5093037;28;20202;-79
2023/04/17 02:16:22;;;;;;;5.43;5.03;;;;;;;9.26;100.00;99370.81;5095916;28;20287;-79
2023/04/17 02:18:50;;;;;;;5.70;5.20;;;;;;;9.22;100.00;99372.28;5094375;28;20208;-79
2023/04/17 02:21:17;;;;;;;5.53;5.03;;;;;;;9.21;100.00;99375.16;5094290;28;20200;-80
2023/04/17 02:23:43;;;;;;;5.30;4.90;;;;;;;9.11;100.00;99372.16;5096315;28;20184;-80
2023/04/17 02:26:10;;;;;;;5.83;5.33;;;;;;;9.20;100.00;99362.84;5082293;28;20210;-80
2023/04/17 02:28:37;;;;;;;5.90;5.40;;;;;;;9.16;100.00;99359.78;5099661;28;20228;-80
2023/04/17 02:31:07;;;;;;;5.70;5.20;;;;;;;9.23;100.00;99367.75;5098014;28;20247;-81
2023/04/17 02:33:38;;;;;;;5.70;5.20;;;;;;;9.14;100.00;99358.38;5084282;28;20620;-81
2023/04/17 02:36:06;;;;;;;5.33;4.83;;;;;;;8.99;100.00;99371.22;5100010;28;20200;-80
2023/04/17 02:38:38;;;;;;;5.60;5.10;;;;;;;8.94;100.00;99366.53;5103322;28;20261;-81
2023/04/17 02:41:05;;;;;;;5.80;5.30;;;;;;;9.08;100.00;99362.72;5098906;28;20210;-81
2023/04/17 02:43:32;;;;;;;5.77;5.27;;;;;;;9.08;100.00;99373.41;5121681;28;20650;-82
2023/04/17 02:46:00;;;;;;;5.53;5.10;;;;;;;9.06;100.00;99362.09;5126948;28;20187;-81
2023/04/17 02:48:27;;;;;;;5.67;5.17;;;;;;;9.12;100.00;99355.09;5121819;28;20180;-81
2023/04/17 02:50:53;;;;;;;5.70;5.20;;;;;;;9.14;100.00;99353.03;5106011;28;20272;-80
2023/04/17 02:53:21;;;;;;;5.90;5.40;;;;;;;9.09;100.00;99355.53;5117804;28;20225;-80
2023/04/17 02:55:48;;;;;;;6.17;5.67;;;;;;;9.11;100.00;99359.59;5125034;28;20243;-80
2023/04/17 02:58:17;;;;;;;6.20;5.70;;;;;;;9.03;100.00;99354.53;5107531;28;20199;-80
2023/04/17 03:00:44;;;;;;;6.43;5.83;;;;;;;9.20;100.00;99357.47;5109127;28;20286;-81
2023/04/17 03:03:14;;;;;;;6.23;5.63;;;;;;;9.21;100.00;99359.13;5115451;28;20298;-80
2023/04/17 03:05:42;;;;;;;5.97;5.47;;;;;;;9.14;100.00;99361.06;5108203;28;20231;-80
2023/04/17 03:08:09;;;;;;;6.90;6.30;;;;;;;9.05;100.00;99362.34;5105686;28;20214;-80
2023/04/17 03:10:47;;;;;;;5.93;5.40;;;;;;;9.14;100.00;99356.53;5103675;28;20200;-80
2023/04/17 03:13:14;;;;;;;5.90;5.40;;;;;;;9.14;100.00;99355.69;5101780;28;20288;-80
2023/04/17 03:15:41;;;;;;;5.87;5.37;;;;;;;9.25;100.00;99361.16;5094549;28;20259;-80
2023/04/17 03:18:07;;;;;;;5.63;5.13;;;;;;;9.12;100.00;99358.59;5104526;28;20198;-81
2023/04/17 03:20:34;;;;;;;6.27;5.70;;;;;;;9.16;100.00;99357.09;5093882;28;20206;-81
2023/04/17 03:23:01;;;;;;;5.83;5.37;;;;;;;9.16;100.00;99356.28;5089811;28;20216;-80
2023/04/17 03:25:28;;;;;;;5.60;5.10;;;;;;;9.09;100.00;99361.69;5109179;28;20187;-79
2023/04/17 03:27:55;;;;;;;5.57;5.07;;;;;;;9.15;100.00;99362.66;5115369;28;20210;-80
2023/04/17 03:30:30;;;;;;;5.87;5.40;;;;;;;9.08;100.00;99359.22;5121719;28;20201;-81
2023/04/17 03:33:00;;;;;;;6.27;5.77;;;;;;;9.18;100.00;99363.06;5117524;28;20204;-80
2023/04/17 03:35:28;;;;;;;5.63;5.13;;;;;;;9.03;100.00;99356.38;5115592;28;20187;-81
2023/04/17 03:37:59;;;;;;;5.77;5.27;;;;;;;9.13;100.00;99354.06;5109251;28;20191;-81
2023/04/17 03:40:26;;;;;;;5.67;5.17;;;;;;;9.08;100.00;99360.06;5110633;28;20231;-81
2023/04/17 03:42:53;;;;;;;6.00;5.50;;;;;;;9.15;100.00;99357.31;5113669;28;20195;-80
2023/04/17 03:45:20;;;;;;;5.77;5.23;;;;;;;9.17;100.00;99357.94;5123200;28;20270;-80
2023/04/17 03:47:47;;;;;;;5.57;5.07;;;;;;;9.05;100.00;99363.13;5107489;28;20193;-81
2023/04/17 03:50:14;;;;;;;5.30;4.80;;;;;;;9.09;100.00;99352.84;5098963;28;20211;-80
2023/04/17 03:52:54;;;;;;;5.90;5.27;;;;;;;9.14;100.00;99355.69;5109414;28;20218;-81
2023/04/17 03:55:23;;;;;;;5.80;5.30;;;;;;;9.21;100.00;99357.28;5120783;28;20195;-80
2023/04/17 03:57:51;;;;;;;6.13;5.53;;;;;;;9.15;100.00;99358.13;5108131;28;20192;-81
2023/04/17 04:00:20;;;;;;;5.43;5.03;;;;;;;9.21;100.00;99353.78;5099755;28;20218;-80
2023/04/17 04:02:51;;;;;;;5.40;5.00;;;;;;;9.20;100.00;99344.94;5103873;28;20205;-80
2023/04/17 04:05:23;;;;;;;5.47;4.97;;;;;;;9.10;100.00;99355.28;5109677;28;20196;-80
2023/04/17 04:07:51;;;;;;;5.20;4.80;;;;;;;9.04;100.00;99350.84;5105251;28;20618;-81
2023/04/17 04:10:28;;;;;;;5.97;5.30;;;;;;;9.07;100.00;99361.09;5109263;28;20203;-81
2023/04/17 04:12:55;;;;;;;5.40;5.00;;;;;;;9.13;100.00;99362.06;5094222;28;20198;-83
2023/04/17 04:15:23;;;;;;;5.37;4.87;;;;;;;9.06;100.00;99361.28;5103214;28;20188;-82
2023/04/17 04:17:55;;;;;;;5.60;5.10;;;;;;;8.97;100.00;99360.72;5090904;28;20219;-81
2023/04/17 04:20:22;;;;;;;6.07;5.43;;;;;;;8.97;100.00;99370.59;5087754;28;20235;-81
2023/04/17 04:22:56;;;;;;;5.40;5.00;;;;;;;9.00;100.00;99371.00;5124545;27;20203;-81
2023/04/17 04:25:23;;;;;;;6.00;5.40;;;;;;;8.91;100.00;99368.81;5121363;28;20187;-81
2023/04/17 04:28:04;;;;;;;5.40;5.00;;;;;;;9.00;100.00;99362.19;5088295;28;20206;-81
2023/04/17 04:30:34;;;;;;;5.07;4.60;;;;;;;9.21;100.00;99369.81;5084104;28;20654;-81
2023/04/17 04:33:07;;;;;;;5.30;4.90;;;;;;;9.21;100.00;99361.81;5088941;28;20207;-80
2023/04/17 04:35:34;;;;;;;5.33;4.93;;;;;;;9.14;100.00;99367.22;5091613;28;20222;-81
2023/04/17 04:38:03;;;;;;;5.13;4.70;;;;;;;9.30;100.00;99371.19;5126359;28;20211;-81
2023/04/17 04:40:36;;;;;;;5.20;4.80;;;;;;;9.39;100.00;99374.41;5111368;28;20231;-81
2023/04/17 04:43:05;;;;;;;4.90;4.50;;;;;;;9.56;100.00;99388.91;5112399;28;20268;-82
2023/04/17 04:45:39;;;;;;;5.20;4.80;;;;;;;9.60;100.00;99382.88;5111594;28;20197;-81
2023/04/17 04:48:06;;;;;;;4.43;4.03;;;;;;;9.66;100.00;99387.34;5124811;28;20218;-80
2023/04/17 04:50:33;;;;;;;5.03;4.63;;;;;;;9.81;100.00;99388.84;5105925;28;20195;-80
2023/04/17 04:53:00;;;;;;;5.33;4.83;;;;;;;9.82;100.00;99387.81;5103144;28;20279;-81
2023/04/17 04:55:41;;;;;;;5.10;4.70;;;;;;;9.77;100.00;99388.50;5096499;28;20290;-82
2023/04/17 04:58:08;;;;;;;4.63;4.23;;;;;;;9.89;100.00;99389.38;5105782;28;20195;-80
2023/04/17 05:00:38;;;;;;;5.00;4.60;;;;;;;10.01;100.00;99400.19;5105466;28;20204;-80
2023/04/17 05:03:06;;;;;;;5.20;4.80;;;;;;;9.95;100.00;99396.53;5104257;28;20196;-80
2023/04/17 05:05:34;;;;;;;5.07;4.67;;;;;;;10.00;100.00;99395.88;5111245;28;20217;-81
2023/04/17 05:08:02;;;;;;;5.00;4.60;;;;;;;10.03;100.00;99409.63;5108897;28;20200;-81
2023/04/17 05:10:33;;;;;;;5.77;5.10;;;;;;;10.11;100.00;99404.00;5114936;28;20685;-81
2023/04/17 05:13:02;;;;;;;5.20;4.80;;;;;;;10.09;100.00;99402.56;5113508;28;20191;-81
2023/04/17 05:15:30;;;;;;;5.40;4.90;;;;;;;10.16;100.00;99408.72;5118027;28;20211;-81
2023/04/17 05:17:57;;;;;;;5.60;5.10;;;;;;;10.15;100.00;99407.91;5116132;28;20196;-82
2023/04/17 05:20:26;;;;;;;5.33;4.87;;;;;;;10.17;100.00;99413.03;5101987;28;20208;-82
2023/04/17 05:22:56;;;;;;;5.57;5.00;;;;;;;10.15;100.00;99410.59;5116160;28;20199;-82
2023/04/17 05:25:23;;;;;;;5.30;4.90;;;;;;;10.23;100.00;99420.16;5111911;28;20218;-81
2023/04/17 05:27:51;;;;;;;5.47;5.07;;;;;;;10.33;100.00;99407.09;5114057;28;20203;-82
2023/04/17 05:30:18;;;;;;;5.30;4.90;;;;;;;10.30;100.00;99404.88;5130739;28;20234;-81
2023/04/17 05:32:50;;;;;;;5.77;5.20;;;;;;;10.40;100.00;99407.84;5106029;28;20226;-81
2023/04/17 05:35:40;;;;;;;5.90;5.30;;;;;;;10.48;100.00;99412.06;5124346;28;20262;-82
2023/04/17 05:38:09;;;;;;;6.03;5.50;;;;;;;10.52;100.00;99406.03;5116838;28;20295;-81
2023/04/17 05:40:35;;;;;;;5.60;5.10;;;;;;;10.67;100.00;99411.03;5129276;28;20223;-81
2023/04/17 05:43:09;;;;;;;5.83;5.33;;;;;;;10.70;100.00;99413.25;5103768;28;20203;-81
2023/04/17 05:45:37;;;;;;;5.63;5.13;;;;;;;10.78;100.00;99412.13;5078301;28;20235;-81
2023/04/17 05:48:07;;;;;;;5.43;5.03;;;;;;;10.84;100.00;99405.84;5116318;28;20247;-81
2023/04/17 05:50:36;;;;;;;5.67;5.17;;;;;;;10.83;100.00;99409.56;5113092;28;20198;-81
2023/04/17 05:53:04;;;;;;;5.80;5.30;;;;;;;10.96;100.00;99407.50;5109743;28;20269;-80
2023/04/17 05:55:36;;;;;;;5.33;4.93;;;;;;;11.07;100.00;99410.47;5111602;28;20204;-80
2023/04/17 05:58:06;;;;;;;5.93;5.43;;;;;;;11.07;100.00;99407.78;5114922;28;20203;-80
2023/04/17 06:00:50;;;;;;;5.40;5.00;;;;;;;11.09;100.00;99417.25;5109144;28;20207;-79
2023/04/17 06:03:18;;;;;;;6.17;5.60;;;;;;;11.08;100.00;99410.25;5108675;28;20204;-78
2023/04/17 06:05:48;;;;;;;5.80;5.30;;;;;;;11.06;100.00;99416.91;5101789;28;20223;-80
2023/04/17 06:08:16;;;;;;;5.43;5.03;;;;;;;11.04;100.00;99409.09;5122336;28;20230;-80
2023/04/17 06:10:44;;;;;;;6.00;5.50;;;;;;;11.11;100.00;99409.78;5103486;28;20191;-78
2023/04/17 06:13:11;;;;;;;6.03;5.43;;;;;;;11.17;100.00;99414.25;5121103;28;20211;-78
2023/04/17 06:15:42;;;;;;;5.80;5.30;;;;;;;11.18;100.00;99405.16;5103618;28;20207;-80
2023/04/17 06:18:09;;;;;;;6.17;5.60;;;;;;;11.11;100.00;99408.97;5103503;28;20195;-78
2023/04/17 06:20:36;;;;;;;5.87;5.37;;;;;;;11.39;100.00;99412.66;5103091;28;20241;-81
2023/04/17 06:23:05;;;;;;;6.70;6.00;;;;;;;11.59;100.00;99412.38;5104152;28;20739;-80
2023/04/17 06:25:32;;;;;;;6.90;6.23;;;;;;;11.89;100.00;99420.38;5120008;28;20191;-81
2023/04/17 06:27:59;;;;;;;7.03;6.43;;;;;;;12.12;100.00;99414.19;5122157;28;20179;-81
2023/04/17 06:30:26;;;;;;;8.50;6.60;;;;;;;12.28;100.00;99422.31;5110832;28;20219;-81
2023/04/17 06:32:54;;;;;;;7.10;6.50;;;;;;;12.45;100.00;99424.28;5120592;28;20270;-78
2023/04/17 06:35:21;;;;;;;6.90;6.30;;;;;;;12.59;100.00;99420.28;5101982;28;20191;-81
2023/04/17 06:37:57;;;;;;;6.70;6.00;;;;;;;12.41;100.00;99415.09;5101987;28;20202;-79
2023/04/17 06:40:23;;;;;;;6.30;5.70;;;;;;;12.66;100.00;99426.34;5097344;28;20242;-79
2023/04/17 06:42:50;;;;;;;5.90;5.37;;;;;;;12.87;100.00;99427.56;5097112;28;20658;-79
2023/04/17 06:45:19;;;;;;;6.67;6.07;;;;;;;12.94;100.00;99434.44;5095257;28;20207;-82
2023/04/17 06:47:46;;;;;;;6.33;5.83;;;;;;;12.99;100.00;99429.16;5102294;28;20246;-81
2023/04/17 06:50:15;;;;;;;5.97;5.47;;;;;;;13.19;100.00;99431.44;5102928;28;20195;-79
2023/04/17 06:52:42;;;;;;;6.37;5.77;;;;;;;13.05;100.00;99425.53;5102699;28;20726;-79
2023/04/17 06:55:09;;;;;;;6.80;6.20;;;;;;;13.03;100.00;99434.88;5101486;28;20222;-80
2023/04/17 06:57:37;;;;;;;6.37;5.87;;;;;;;13.23;100.00;99425.34;5102513;28;20212;-79
2023/04/17 07:00:04;;;;;;;6.33;5.83;;;;;;;13.26;100.00;99434.78;5102109;28;20583;-80
2023/04/17 07:02:31;;;;;;;7.10;6.40;;;;;;;13.13;100.00;99430.53;5100712;28;20644;-79
2023/04/17 07:04:58;;;;;;;6.87;6.17;;;;;;;13.25;100.00;99435.84;5098478;28;20702;-78
2023/04/17 07:07:25;;;;;;;5.83;5.33;;;;;;;13.12;100.00;99439.66;5101133;28;20283;-79
2023/04/17 07:09:52;;;;;;;6.17;5.57;;;;;;;13.25;100.00;99440.44;5100647;28;20632;-79
2023/04/17 07:12:19;;;;;;;8.47;5.97;;;;;;;13.19;100.00;99437.66;5097983;28;20625;-78
2023/04/17 07:14:46;;;;;;;6.50;5.90;;;;;;;13.18;100.00;99444.06;5101280;28;20275;-78
2023/04/17 07:17:12;;;;;;;6.63;5.93;;;;;;;13.06;100.00;99431.72;5102962;28;20214;-79
2023/04/17 07:19:39;;;;;;;6.40;5.87;;;;;;;13.15;100.00;99438.38;5102379;28;20217;-79
2023/04/17 07:22:06;;;;;;;6.50;5.90;;;;;;;12.97;100.00;99427.78;5103587;28;20251;-79
2023/04/17 07:24:33;;;;;;;7.63;6.20;;;;;;;13.16;100.00;99438.09;5103463;28;20249;-79
2023/04/17 07:27:03;;;;;;;6.70;6.10;;;;;;;13.40;100.00;99444.19;5102082;28;20188;-79
2023/04/17 07:29:30;;;;;;;7.20;6.60;;;;;;;13.48;100.00;99440.31;5095575;28;20184;-81
2023/04/17 07:31:57;;;;;;;7.50;6.80;;;;;;;13.42;100.00;99443.97;5105768;28;20189;-79
2023/04/17 07:34:24;;;;;;;7.87;7.07;;;;;;;13.65;100.00;99439.25;5082613;28;20188;-78
2023/04/17 07:36:51;;;;;;;7.33;6.57;;;;;;;13.83;100.00;99445.47;5097506;28;20275;-79
2023/04/17 07:39:18;;;;;;;7.47;6.27;;;;;;;13.59;100.00;99442.91;5100885;28;20228;-81
2023/04/17 07:41:45;;;;;;;7.07;6.37;;;;;;;13.59;100.00;99439.41;5102617;28;20226;-79
2023/04/17 07:44:12;;;;;;;6.73;6.03;;;;;;;13.78;100.00;99448.06;5106157;28;20184;-79
2023/04/17 07:46:40;;;;;;;6.87;6.23;;;;;;;13.91;100.00;99442.34;5087551;28;20227;-79
2023/04/17 07:49:07;;;;;;;6.83;6.13;;;;;;;13.78;100.00;99450.75;5100959;28;20195;-78
2023/04/17 07:51:39;;;;;;;6.90;6.30;;;;;;;14.09;100.00;99445.59;5108343;28;20179;-80
2023/04/17 07:54:07;;;;;;;7.10;6.50;;;;;;;14.15;100.00;99443.81;5104849;28;20226;-83
2023/04/17 07:56:35;;;;;;;6.53;5.93;;;;;;;14.37;100.00;99444.69;5106256;28;20212;-80
2023/04/17 07:59:02;;;;;;;6.60;6.00;;;;;;;14.17;100.00;99459.72;5106334;28;20218;-80
2023/04/17 08:01:30;;;;;;;6.70;6.10;;;;;;;14.10;100.00;99452.63;5090795;28;20280;-80
2023/04/17 08:03:57;;;;;;;7.47;6.67;;;;;;;14.13;100.00;99442.44;5106291;28;20180;-80
2023/04/17 08:06:25;;;;;;;7.53;6.20;;;;;;;14.25;100.00;99462.81;5104299;28;20212;-79
2023/04/17 08:08:52;;;;;;;7.20;6.50;;;;;;;14.52;100.00;99454.88;5100666;28;20192;-79
2023/04/17 08:11:18;;;;;;;6.47;5.87;;;;;;;14.45;100.00;99449.66;5098880;28;20228;-81
2023/04/17 08:13:45;;;;;;;6.87;6.27;;;;;;;14.60;100.00;99456.34;5099783;28;20242;-81
2023/04/17 08:16:12;;;;;;;6.60;6.00;;;;;;;14.40;100.00;99446.91;5102103;28;20583;-82
2023/04/17 08:18:40;;;;;;;6.30;5.70;;;;;;;14.27;100.00;99460.69;5106331;28;20192;-81
2023/04/17 08:21:08;;;;;;;6.93;6.23;;;;;;;14.81;100.00;99467.13;5102465;28;20216;-79
2023/04/17 08:23:35;;;;;;;6.33;5.73;;;;;;;14.74;100.00;99453.00;5100116;28;20249;-82
2023/04/17 08:26:02;;;;;;;7.27;6.30;;;;;;;14.53;100.00;99456.50;5100493;28;20194;-82
2023/04/17 08:28:29;;;;;;;6.97;6.27;;;;;;;14.78;100.00;99458.72;5102441;28;20248;-81
2023/04/17 08:30:56;;;;;;;6.27;5.67;;;;;;;14.92;100.00;99454.56;5098483;28;20204;-79
2023/04/17 08:33:23;;;;;;;6.50;5.90;;;;;;;15.14;100.00;99452.66;5094045;28;20197;-80
2023/04/17 08:35:50;;;;;;;6.50;5.97;;;;;;;15.21;100.00;99457.88;5097688;28;20185;-79
2023/04/17 08:38:17;;;;;;;6.60;6.00;;;;;;;15.28;100.00;99455.78;5096196;28;20190;-79
2023/04/17 08:40:46;;;;;;;6.53;5.67;;;;;;;15.53;100.00;99460.66;5115928;28;20319;-79
2023/04/17 08:43:19;;;;;;;6.23;5.63;;;;;;;15.72;100.00;99453.81;5098823;28;20217;-79
2023/04/17 08:45:55;;;;;;;6.50;5.90;;;;;;;16.00;100.00;99452.69;5117638;28;20208;-80
2023/04/17 08:48:23;;;;;;;6.10;5.60;;;;;;;15.74;100.00;99455.16;5098923;28;20197;-79
2023/04/17 08:50:52;;;;;;;6.33;5.73;;;;;;;15.61;100.00;99447.50;5099693;28;20201;-80
2023/04/17 08:53:19;;;;;;;6.23;5.67;;;;;;;15.34;100.00;99469.09;5117499;28;20190;-79
2023/04/17 08:55:47;;;;;;;6.67;5.90;;;;;;;15.32;100.00;99452.31;5117523;28;20185;-80
2023/04/17 08:58:14;;;;;;;6.00;5.50;;;;;;;15.22;100.00;99448.69;5105137;28;20193;-80
2023/04/17 09:00:43;;;;;;;7.83;6.30;;;;;;;15.54;100.00;99452.28;5100474;28;20216;-79
2023/04/17 09:03:11;;;;;;;7.10;6.40;;;;;;;15.27;100.00;99446.03;5105281;28;20195;-81
2023/04/17 09:05:42;;;;;;;6.50;5.90;;;;;;;15.43;100.00;99445.13;5118908;28;20184;-79
2023/04/17 09:08:19;;;;;;;6.83;6.10;;;;;;;15.67;100.00;99451.06;5117367;28;20193;-80
2023/04/17 09:10:52;;;;;;;6.60;6.00;;;;;;;15.86;100.00;99453.09;5098585;28;20196;-80
2023/04/17 09:13:23;;;;;;;6.93;6.23;;;;;;;15.80;100.00;99453.34;5100169;28;20222;-80
2023/04/17 09:16:06;;;;;;;6.80;6.13;;;;;;;16.02;100.00;99445.13;5117922;28;20187;-80
2023/04/17 09:18:34;;;;;;;7.13;6.43;;;;;;;15.98;100.00;99442.13;5114581;28;20221;-80
2023/04/17 09:21:02;;;;;;;6.87;6.27;;;;;;;15.96;100.00;99446.16;5117956;28;20222;-80
2023/04/17 09:23:31;;;;;;;6.97;6.37;;;;;;;16.06;99.91;99451.63;5103621;28;20186;-80
2023/04/17 09:26:09;;;;;;;6.40;5.80;;;;;;;16.10;100.00;99437.34;5100112;28;20197;-80
2023/04/17 09:28:39;;;;;;;7.13;6.43;;;;;;;16.01;99.34;99438.06;5097717;28;20197;-80
2023/04/17 09:31:17;;;;;;;7.07;6.47;;;;;;;15.92;99.34;99440.44;5094484;28;20224;-79
2023/04/17 09:34:03;;;;;;;7.30;6.60;;;;;;;15.93;98.33;99433.97;5116522;28;20652;-79
2023/04/17 09:36:32;;;;;;;7.50;6.10;;;;;;;16.59;99.26;99431.72;5115638;28;20270;-80
2023/04/17 09:39:04;;;;;;;7.20;6.60;;;;;;;16.50;99.76;99430.56;5115338;28;20241;-79
2023/04/17 09:41:35;;;;;;;7.40;6.70;;;;;;;16.43;99.70;99436.19;5113383;28;20205;-79
2023/04/17 09:44:04;;;;;;;7.00;6.40;;;;;;;16.61;98.25;99427.66;5115529;28;20611;-79
2023/04/17 09:46:39;;;;;;;6.57;5.97;;;;;;;16.91;97.81;99426.16;5115521;28;20205;-79
2023/04/17 09:49:14;;;;;;;6.93;6.30;;;;;;;17.24;96.52;99423.00;5103362;28;20199;-79
2023/04/17 09:51:42;;;;;;;7.13;6.30;;;;;;;16.70;95.09;99419.88;5116683;28;20259;-79
2023/04/17 09:54:10;;;;;;;7.17;6.47;;;;;;;16.95;96.12;99419.13;5116440;28;20648;-79
2023/04/17 09:56:38;;;;;;;6.37;5.87;;;;;;;16.83;95.84;99421.25;5108605;28;20195;-80
2023/04/17 09:59:06;;;;;;;6.70;6.07;;;;;;;17.02;95.06;99423.22;5100438;28;20191;-80
2023/04/17 10:01:34;;;;;;;6.97;6.37;;;;;;;16.86;96.81;99421.53;5101186;28;20686;-79
2023/04/17 10:04:02;;;;;;;6.80;6.20;;;;;;;17.23;96.47;99415.94;5096949;28;20224;-79
2023/04/17 10:06:31;;;;;;;7.27;6.57;;;;;;;17.23;97.63;99420.56;5113209;28;20212;-79
2023/04/17 10:08:57;;;;;;;7.40;6.67;;;;;;;17.10;95.19;99417.28;5115029;28;20532;-79
2023/04/17 10:11:27;;;;;;;6.67;6.07;;;;;;;16.53;93.43;99411.91;5115218;28;20188;-79
2023/04/17 10:14:10;;;;;;;7.07;6.37;;;;;;;16.57;95.95;99404.06;5098676;28;20925;-79
2023/04/17 10:16:42;;;;;;;7.03;6.43;;;;;;;16.66;96.27;99408.75;5086300;28;20192;-80
2023/04/17 10:19:31;;;;;;;6.70;6.10;;;;;;;16.85;96.66;99422.59;5115877;28;20195;-79
2023/04/17 10:22:30;;;;;;;7.60;6.90;;;;;;;16.87;95.41;99415.06;5102616;28;20207;-79
2023/04/17 10:25:13;;;;;;;6.63;6.13;;;;;;;17.05;94.39;99405.63;5072382;28;20207;-79
2023/04/17 10:27:40;;;;;;;6.87;6.27;;;;;;;16.56;95.65;99397.06;5113513;28;20258;-79
2023/04/17 10:30:11;;;;;;;6.83;6.33;;;;;;;16.89;95.38;99398.56;5119720;28;20199;-79
2023/04/17 10:32:40;;;;;;;7.10;6.47;;;;;;;16.95;94.50;99400.19;5120244;28;20296;-79
2023/04/17 10:35:16;;;;;;;6.77;6.03;;;;;;;16.94;95.25;99393.13;5119266;28;20694;-79
2023/04/17 10:37:51;;;;;;;7.10;6.50;;;;;;;16.94;95.57;99390.44;5115261;28;20645;-79
2023/04/17 10:40:20;;;;;;;7.47;6.80;;;;;;;16.80;95.58;99387.41;5119130;28;20348;-79
2023/04/17 10:43:22;;;;;;;7.10;6.50;;;;;;;16.28;96.30;99385.53;5119890;28;20196;-81
2023/04/17 10:45:53;;;;;;;7.40;6.70;;;;;;;16.56;96.39;99380.84;5101715;28;20194;-79
2023/04/17 10:48:29;;;;;;;7.30;6.60;;;;;;;16.30;95.35;99375.28;5117934;28;20210;-79
2023/04/17 10:50:56;;;;;;;7.33;6.63;;;;;;;16.78;96.76;99375.25;5119275;28;20270;-80
2023/04/17 10:53:42;;;;;;;7.60;7.00;;;;;;;17.25;95.15;99381.31;5118767;28;20187;-78
2023/04/17 10:56:11;;;;;;;7.53;6.90;;;;;;;17.80;93.91;99377.00;5118678;28;20226;-80
2023/04/17 10:58:45;;;;;;;7.33;6.73;;;;;;;17.98;91.88;99371.84;5105421;28;20262;-79
2023/04/17 11:01:12;;;;;;;7.50;6.80;;;;;;;18.12;90.69;99361.22;5082325;28;20222;-79
2023/04/17 11:03:40;;;;;;;7.00;6.40;;;;;;;18.32;92.97;99368.50;5118087;28;20188;-79
2023/04/17 11:06:06;;;;;;;7.20;6.50;;;;;;;18.12;90.48;99365.84;5106133;28;20241;-79
2023/04/17 11:08:33;;;;;;;8.03;7.33;;;;;;;18.22;88.22;99353.06;5118068;28;20622;-79
2023/04/17 11:11:00;;;;;;;7.37;6.77;;;;;;;18.68;87.92;99361.06;5117968;28;20198;-79
2023/04/17 11:13:32;;;;;;;7.77;7.07;;;;;;;17.95;88.90;99355.31;5118003;28;20192;-79
2023/04/17 11:15:59;;;;;;;7.80;7.10;;;;;;;17.80;89.18;99355.34;5117878;28;20183;-78
2023/04/17 11:18:25;;;;;;;6.93;6.33;;;;;;;18.16;90.06;99350.63;5110987;28;20188;-78
2023/04/17 11:20:52;;;;;;;7.63;6.93;;;;;;;17.91;89.78;99340.69;5102198;28;20208;-79
2023/04/17 11:23:19;;;;;;;7.33;6.63;;;;;;;18.09;90.13;99348.25;5115957;28;20212;-78
2023/04/17 11:25:46;;;;;;;7.60;6.93;;;;;;;18.27;88.71;99344.91;5117834;28;20559;-80
2023/04/17 11:28:12;;;;;;;7.77;7.07;;;;;;;18.21;88.97;99343.31;5118197;28;20219;-79
2023/04/17 11:30:43;;;;;;;6.87;6.27;;;;;;;18.21;88.70;99334.34;5114506;28;20733;-81
2023/04/17 11:33:11;;;;;;;7.33;6.57;;;;;;;18.37;90.24;99335.94;5117291;28;20192;-79
2023/04/17 11:35:40;;;;;;;7.20;6.60;;;;;;;18.29;90.07;99333.81;5117717;28;21090;-79
2023/04/17 11:38:13;;;;;;;7.40;6.80;;;;;;;17.73;89.62;99339.34;5099057;28;20188;-79